Time;durP1;ratioP1;P1;durP2;ratioP2;P2;SDS_P1;SDS_P2;PMS_P1;PMS_P2;Temp;Humidity;BMP_temperature;BMP_pressure;BME280_temperature;BME280_humidity;BME280_pressure;Samples;Min_cycle;Max_cycle;Signal;HPM_P1;HPM_P2
2021/12/06 00:00:12;;;;;;;17.45;14.98;;;;;19.70;99955.00;;;;2086981;28;20200;-47
2021/12/06 00:01:30;;;;;;;19.88;15.80;;;;;19.70;99954.00;;;;2081596;28;20216;-49
2021/12/06 00:02:31;;;;;;;18.95;15.75;;;;;19.70;99955.00;;;;2086990;28;20220;-47
2021/12/06 00:03:40;;;;;;;16.57;14.83;;;;;19.60;99956.00;;;;2085760;28;20684;-47
2021/12/06 00:04:40;;;;;;;17.30;14.13;;;;;19.60;99957.00;;;;2080244;28;20268;-47
2021/12/06 00:05:41;;;;;;;18.00;15.57;;;;;19.70;99950.00;;;;2075601;28;20657;-47
2021/12/06 00:06:43;;;;;;;17.13;15.33;;;;;19.60;99951.00;;;;2087058;28;20252;-46
2021/12/06 00:07:43;;;;;;;17.25;15.40;;;;;19.60;99953.00;;;;2086942;28;20684;-46
2021/12/06 00:08:43;;;;;;;16.13;14.27;;;;;19.60;99952.00;;;;2083724;28;20241;-47
2021/12/06 00:09:44;;;;;;;18.60;14.43;;;;;19.60;99960.00;;;;2078558;28;20216;-46
2021/12/06 00:10:49;;;;;;;16.50;14.10;;;;;19.60;99951.00;;;;2081885;28;20608;-47
2021/12/06 00:11:56;;;;;;;15.90;14.02;;;;;19.60;99952.00;;;;2086819;28;20205;-47
2021/12/06 00:12:57;;;;;;;16.92;13.82;;;;;19.60;99950.00;;;;2086403;28;20207;-47
2021/12/06 00:13:58;;;;;;;14.90;13.37;;;;;19.60;99949.00;;;;2086925;28;20247;-46
2021/12/06 00:14:58;;;;;;;17.20;14.60;;;;;19.60;99957.00;;;;2087049;28;20755;-47
2021/12/06 00:15:59;;;;;;;14.93;13.40;;;;;19.50;99956.00;;;;2086674;28;20727;-47
2021/12/06 00:17:01;;;;;;;16.93;14.33;;;;;19.50;99952.00;;;;2086983;28;20217;-45
2021/12/06 00:18:02;;;;;;;15.70;14.10;;;;;19.60;99952.00;;;;2086798;28;20452;-45
2021/12/06 00:19:03;;;;;;;15.17;13.40;;;;;19.60;99940.00;;;;2076531;28;20221;-45
2021/12/06 00:20:05;;;;;;;15.38;12.98;;;;;19.60;99958.00;;;;2077524;28;20224;-45
2021/12/06 00:21:06;;;;;;;15.93;13.40;;;;;19.60;99948.00;;;;2081404;28;20308;-45
2021/12/06 00:22:08;;;;;;;17.30;14.20;;;;;19.50;99956.00;;;;2086687;28;20586;-50
2021/12/06 00:23:08;;;;;;;15.55;13.35;;;;;19.60;99949.00;;;;2082792;28;20554;-46
2021/12/06 00:24:09;;;;;;;15.60;12.80;;;;;19.50;99954.00;;;;2086993;28;20231;-46
2021/12/06 00:25:09;;;;;;;17.30;12.70;;;;;19.50;99955.00;;;;2087077;28;20216;-47
2021/12/06 00:26:10;;;;;;;14.60;13.07;;;;;19.50;99951.00;;;;2086843;28;20221;-46
2021/12/06 00:27:10;;;;;;;13.97;12.50;;;;;19.50;99953.00;;;;2086255;28;20232;-45
2021/12/06 00:28:11;;;;;;;14.40;12.53;;;;;19.50;99950.00;;;;2077437;28;20213;-46
2021/12/06 00:29:12;;;;;;;13.90;12.40;;;;;19.50;99955.00;;;;2074455;28;20312;-48
2021/12/06 00:30:15;;;;;;;13.45;12.05;;;;;19.50;99954.00;;;;2078529;28;20217;-48
2021/12/06 00:31:16;;;;;;;13.50;12.05;;;;;19.50;99960.00;;;;2078568;28;20202;-47
2021/12/06 00:32:16;;;;;;;12.57;11.27;;;;;19.40;99961.00;;;;2078710;28;20309;-48
2021/12/06 00:33:17;;;;;;;14.27;12.20;;;;;19.40;99963.00;;;;2078691;28;20212;-48
2021/12/06 00:34:18;;;;;;;13.70;12.30;;;;;19.40;99961.00;;;;2078813;28;20648;-48
2021/12/06 00:35:22;;;;;;;12.88;11.48;;;;;19.40;99960.00;;;;2076525;28;20216;-48
2021/12/06 00:36:28;;;;;;;13.05;11.65;;;;;19.40;99964.00;;;;2078053;28;20300;-48
2021/12/06 00:37:31;;;;;;;12.48;11.27;;;;;19.40;99968.00;;;;2077275;28;20220;-48
2021/12/06 00:38:32;;;;;;;12.63;11.30;;;;;19.40;99967.00;;;;2085562;28;20228;-49
2021/12/06 00:39:32;;;;;;;14.40;12.37;;;;;19.40;99965.00;;;;2086905;28;20220;-48
2021/12/06 00:40:35;;;;;;;12.57;11.23;;;;;19.40;99971.00;;;;2086347;28;20466;-48
2021/12/06 00:41:36;;;;;;;12.15;10.95;;;;;19.40;99969.00;;;;2083164;28;20224;-48
2021/12/06 00:42:36;;;;;;;12.43;11.23;;;;;19.40;99964.00;;;;2086900;28;20215;-47
2021/12/06 00:43:37;;;;;;;12.47;11.17;;;;;19.40;99961.00;;;;2082569;28;20220;-48
2021/12/06 00:44:37;;;;;;;11.80;10.60;;;;;19.40;99958.00;;;;2078612;28;20222;-47
2021/12/06 00:45:37;;;;;;;11.90;10.70;;;;;19.40;99960.00;;;;2078527;28;20240;-48
2021/12/06 00:46:38;;;;;;;12.57;11.10;;;;;19.40;99963.00;;;;2079431;28;20670;-47
2021/12/06 00:47:38;;;;;;;11.33;9.83;;;;;19.40;99967.00;;;;2080069;28;20228;-47
2021/12/06 00:48:38;;;;;;;12.80;11.40;;;;;19.30;99965.00;;;;2081048;28;20218;-46
2021/12/06 00:49:39;;;;;;;11.10;10.00;;;;;19.30;99968.00;;;;2087837;28;20225;-48
2021/12/06 00:50:41;;;;;;;12.10;9.90;;;;;19.30;99967.00;;;;2087979;28;20231;-47
2021/12/06 00:51:41;;;;;;;11.40;10.23;;;;;19.30;99975.00;;;;2088108;28;20213;-48
2021/12/06 00:52:41;;;;;;;11.50;9.30;;;;;19.30;99971.00;;;;2088280;28;20322;-48
2021/12/06 00:53:43;;;;;;;13.23;10.23;;;;;19.30;99965.00;;;;2088293;28;20217;-48
2021/12/06 00:54:44;;;;;;;10.23;9.23;;;;;19.30;99974.00;;;;2080654;28;20328;-48
2021/12/06 00:55:44;;;;;;;10.80;9.80;;;;;19.30;99973.00;;;;2080292;28;20214;-48
2021/12/06 00:56:45;;;;;;;10.80;9.43;;;;;19.30;99968.00;;;;2079233;28;20306;-48
2021/12/06 00:57:45;;;;;;;10.93;9.73;;;;;19.30;99977.00;;;;2084325;28;20213;-48
2021/12/06 00:58:46;;;;;;;10.73;9.60;;;;;19.20;99974.00;;;;2088272;28;20213;-47
2021/12/06 00:59:46;;;;;;;10.43;9.40;;;;;19.20;99966.00;;;;2083930;28;20213;-47
2021/12/06 01:00:48;;;;;;;10.70;9.60;;;;;19.30;99975.00;;;;2079730;28;20213;-48
2021/12/06 01:01:48;;;;;;;10.35;9.23;;;;;19.30;99968.00;;;;2079010;28;20217;-47
2021/12/06 01:02:49;;;;;;;9.57;8.67;;;;;19.30;99981.00;;;;2079669;28;20367;-48
2021/12/06 01:03:50;;;;;;;10.40;8.95;;;;;19.20;99975.00;;;;2079174;28;20796;-47
2021/12/06 01:04:51;;;;;;;10.70;9.63;;;;;19.20;99985.00;;;;2079431;28;20264;-48
2021/12/06 01:05:52;;;;;;;10.35;9.35;;;;;19.20;99985.00;;;;2079502;28;20287;-47
2021/12/06 01:06:52;;;;;;;9.27;7.83;;;;;19.20;99982.00;;;;2080306;28;20613;-47
2021/12/06 01:07:54;;;;;;;9.70;8.70;;;;;19.20;99986.00;;;;2080182;28;20209;-48
2021/12/06 01:08:55;;;;;;;11.38;9.35;;;;;19.20;99989.00;;;;2080207;28;20213;-47
2021/12/06 01:09:55;;;;;;;9.98;9.07;;;;;19.20;99995.00;;;;2080180;28;20209;-48
2021/12/06 01:10:56;;;;;;;12.60;8.00;;;;;19.20;99997.00;;;;2087403;28;20201;-47
2021/12/06 01:11:56;;;;;;;9.03;8.20;;;;;19.20;100002.00;;;;2084192;28;20240;-48
2021/12/06 01:12:56;;;;;;;9.47;8.57;;;;;19.20;99998.00;;;;2080101;28;20208;-48
2021/12/06 01:13:58;;;;;;;9.40;8.50;;;;;19.20;100009.00;;;;2079138;28;20929;-48
2021/12/06 01:14:58;;;;;;;9.82;8.82;;;;;19.20;100006.00;;;;2079170;28;20209;-48
2021/12/06 01:15:59;;;;;;;9.83;8.83;;;;;19.10;100010.00;;;;2079387;28;20723;-48
2021/12/06 01:16:59;;;;;;;9.83;8.37;;;;;19.20;100015.00;;;;2079962;28;20228;-47
2021/12/06 01:18:02;;;;;;;10.20;9.10;;;;;19.20;100012.00;;;;2080120;28;20213;-48
2021/12/06 01:19:02;;;;;;;11.27;8.52;;;;;19.20;100015.00;;;;2080097;28;20288;-47
2021/12/06 01:20:07;;;;;;;9.10;8.20;;;;;19.10;100007.00;;;;2082101;28;20304;-48
2021/12/06 01:22:20;;;;;;;9.82;8.82;;;;;19.10;100025.00;;;;2075762;28;20300;-47
2021/12/06 01:23:25;;;;;;;9.00;8.10;;;;;19.10;100034.00;;;;2085190;28;20209;-47
2021/12/06 01:24:30;;;;;;;8.90;8.00;;;;;19.10;100035.00;;;;2086143;28;20273;-48
2021/12/06 01:31:34;;;;;;;8.82;7.93;;;;;19.10;100045.00;;;;2087059;28;20325;-47
2021/12/06 01:33:00;;;;;;;10.57;7.97;;;;;19.00;100044.00;;;;2086233;28;20213;-48
2021/12/06 01:40:04;;;;;;;8.13;7.30;;;;;19.00;100042.00;;;;2078935;28;20225;-48
2021/12/06 01:41:04;;;;;;;8.17;7.30;;;;;19.00;100048.00;;;;2079069;28;20701;-48
2021/12/06 01:42:05;;;;;;;8.83;7.93;;;;;19.00;100042.00;;;;2079507;28;20463;-49
2021/12/06 01:43:07;;;;;;;8.82;7.93;;;;;19.00;100055.00;;;;2078219;28;20217;-48
2021/12/06 01:44:26;;;;;;;8.25;7.35;;;;;19.00;100039.00;;;;2078902;28;20221;-49
2021/12/06 01:45:27;;;;;;;10.65;7.88;;;;;19.00;100048.00;;;;2083098;28;20216;-48
2021/12/06 01:46:27;;;;;;;9.73;7.70;;;;;18.90;100054.00;;;;2078351;28;20213;-49
2021/12/06 01:47:32;;;;;;;8.23;7.43;;;;;19.00;100051.00;;;;2086393;28;20204;-48
2021/12/06 01:48:32;;;;;;;8.43;7.13;;;;;18.90;100053.00;;;;2087247;28;20635;-48
2021/12/06 01:49:38;;;;;;;7.83;7.10;;;;;18.90;100054.00;;;;2087055;28;20209;-49
2021/12/06 01:50:38;;;;;;;7.80;7.10;;;;;18.90;100052.00;;;;2086286;28;20930;-48
2021/12/06 01:51:39;;;;;;;8.90;7.17;;;;;18.90;100061.00;;;;2087795;28;20316;-48
2021/12/06 01:52:42;;;;;;;7.00;6.07;;;;;18.90;100058.00;;;;2087229;28;20585;-49
2021/12/06 01:53:42;;;;;;;7.35;6.65;;;;;18.90;100065.00;;;;2081446;28;20538;-48
2021/12/06 01:54:43;;;;;;;8.37;7.33;;;;;18.90;100067.00;;;;2079657;28;20260;-48
2021/12/06 01:55:43;;;;;;;7.70;6.90;;;;;18.90;100065.00;;;;2079618;28;20531;-49
2021/12/06 01:56:44;;;;;;;7.57;6.83;;;;;18.90;100069.00;;;;2079708;28;20218;-49
2021/12/06 01:57:44;;;;;;;11.13;6.43;;;;;18.90;100078.00;;;;2081742;28;20220;-49
2021/12/06 01:58:44;;;;;;;7.57;6.87;;;;;18.90;100079.00;;;;2084813;28;20225;-47
2021/12/06 01:59:45;;;;;;;7.03;6.37;;;;;18.90;100069.00;;;;2087489;28;20217;-47
2021/12/06 02:00:50;;;;;;;7.20;6.47;;;;;18.90;100079.00;;;;2080137;28;20213;-48
2021/12/06 02:01:51;;;;;;;6.93;6.32;;;;;18.90;100090.00;;;;2079338;28;20218;-48
2021/12/06 02:02:52;;;;;;;7.28;6.57;;;;;18.90;100086.00;;;;2079013;28;20292;-49
2021/12/06 02:03:53;;;;;;;8.63;7.15;;;;;18.80;100082.00;;;;2078928;28;20778;-48
2021/12/06 02:04:53;;;;;;;7.80;7.00;;;;;18.90;100080.00;;;;2072731;28;20221;-47
2021/12/06 02:05:54;;;;;;;7.00;6.30;;;;;18.90;100088.00;;;;2079829;28;21068;-47
2021/12/06 02:06:56;;;;;;;6.75;6.25;;;;;18.80;100087.00;;;;2079656;28;20222;-48
2021/12/06 02:07:57;;;;;;;7.00;6.40;;;;;18.90;100097.00;;;;2077314;28;20252;-48
2021/12/06 02:08:57;;;;;;;6.67;6.07;;;;;18.90;100083.00;;;;2078789;28;20740;-47
2021/12/06 02:09:58;;;;;;;6.60;6.00;;;;;18.90;100085.00;;;;2077682;28;20767;-48
2021/12/06 02:11:01;;;;;;;6.77;6.07;;;;;18.90;100088.00;;;;2079098;28;20219;-49
2021/12/06 02:12:03;;;;;;;8.40;6.90;;;;;18.80;100077.00;;;;2079352;28;20210;-49
2021/12/06 02:13:05;;;;;;;8.48;6.70;;;;;18.80;100080.00;;;;2078954;28;20214;-48
2021/12/06 02:14:30;;;;;;;7.35;6.30;;;;;18.80;100082.00;;;;2079372;28;20221;-49
2021/12/06 02:15:45;;;;;;;7.07;6.38;;;;;18.90;100088.00;;;;2087040;28;20221;-49
2021/12/06 02:17:06;;;;;;;6.57;5.97;;;;;18.80;100074.00;;;;2087513;28;20216;-49
2021/12/06 02:18:14;;;;;;;6.68;6.07;;;;;18.80;100070.00;;;;2083072;28;20212;-48
2021/12/06 02:19:18;;;;;;;7.72;6.35;;;;;18.80;100082.00;;;;2086829;28;20224;-49
2021/12/06 02:20:27;;;;;;;6.30;5.70;;;;;18.80;100076.00;;;;2087169;28;20707;-48
2021/12/06 02:21:30;;;;;;;6.88;6.28;;;;;18.70;100087.00;;;;2083086;28;20209;-49
2021/12/06 02:22:33;;;;;;;6.60;5.97;;;;;18.70;100085.00;;;;2071634;28;20312;-48
2021/12/06 02:23:33;;;;;;;6.68;6.07;;;;;18.70;100090.00;;;;2078750;28;20210;-47
2021/12/06 02:24:36;;;;;;;6.23;5.73;;;;;18.80;100088.00;;;;2079582;28;20213;-48
2021/12/06 02:25:37;;;;;;;6.90;6.30;;;;;18.80;100089.00;;;;2079297;28;20286;-48
2021/12/06 02:26:40;;;;;;;7.60;6.60;;;;;18.80;100091.00;;;;2079522;28;20717;-48
2021/12/06 02:27:40;;;;;;;6.53;5.82;;;;;18.80;100097.00;;;;2079570;28;20225;-47
2021/12/06 02:28:41;;;;;;;7.77;7.07;;;;;18.80;100089.00;;;;2079225;28;20245;-48
2021/12/06 02:29:42;;;;;;;6.00;5.37;;;;;18.80;100098.00;;;;2078325;28;20361;-49
2021/12/06 02:30:43;;;;;;;6.13;5.63;;;;;18.70;100104.00;;;;2078745;28;20210;-48
2021/12/06 02:31:43;;;;;;;6.80;6.20;;;;;18.70;100098.00;;;;2079439;28;20303;-48
2021/12/06 02:32:44;;;;;;;6.30;5.70;;;;;18.70;100099.00;;;;2079453;28;20221;-49
2021/12/06 02:33:46;;;;;;;6.47;5.80;;;;;18.70;100104.00;;;;2079404;28;20230;-48
2021/12/06 02:34:49;;;;;;;6.28;5.68;;;;;18.70;100100.00;;;;2077878;28;20244;-49
2021/12/06 02:35:52;;;;;;;6.32;5.72;;;;;18.70;100106.00;;;;2078070;28;20267;-47
2021/12/06 02:36:52;;;;;;;6.43;5.72;;;;;18.70;100105.00;;;;2079325;28;20210;-49
2021/12/06 02:37:53;;;;;;;6.83;6.23;;;;;18.70;100109.00;;;;2079506;28;20213;-47
2021/12/06 02:38:53;;;;;;;6.50;5.90;;;;;18.70;100109.00;;;;2079431;28;20213;-48
2021/12/06 02:39:54;;;;;;;6.97;5.63;;;;;18.70;100103.00;;;;2079353;28;20209;-48
2021/12/06 02:40:54;;;;;;;6.40;5.80;;;;;18.70;100107.00;;;;2078773;28;20209;-49
2021/12/06 02:41:56;;;;;;;6.10;5.50;;;;;18.70;100102.00;;;;2083140;28;20696;-53
2021/12/06 02:42:57;;;;;;;6.40;5.55;;;;;18.70;100107.00;;;;2087411;28;20277;-49
2021/12/06 02:43:59;;;;;;;6.63;5.97;;;;;18.70;100108.00;;;;2087491;28;20212;-49
2021/12/06 02:45:00;;;;;;;5.93;5.32;;;;;18.70;100103.00;;;;2077200;28;20205;-48
2021/12/06 02:46:01;;;;;;;6.40;5.63;;;;;18.70;100098.00;;;;2086860;28;20220;-48
2021/12/06 02:47:01;;;;;;;6.07;5.47;;;;;18.70;100106.00;;;;2094418;28;20205;-47
2021/12/06 02:48:04;;;;;;;6.77;6.17;;;;;18.70;100101.00;;;;2087553;28;20221;-48
2021/12/06 02:49:05;;;;;;;6.53;5.50;;;;;18.70;100106.00;;;;2087605;28;20205;-49
2021/12/06 02:50:08;;;;;;;6.05;5.55;;;;;18.70;100109.00;;;;2086552;28;20208;-47
2021/12/06 02:51:09;;;;;;;6.18;5.63;;;;;18.60;100111.00;;;;2086136;28;20215;-47
2021/12/06 02:52:11;;;;;;;6.70;5.60;;;;;18.60;100117.00;;;;2087537;28;20197;-48
2021/12/06 02:53:12;;;;;;;6.20;5.60;;;;;18.60;100106.00;;;;2086601;28;20217;-49
2021/12/06 02:54:13;;;;;;;5.90;5.40;;;;;18.60;100115.00;;;;2086624;28;20831;-49
2021/12/06 02:55:32;;;;;;;6.57;5.97;;;;;18.60;100119.00;;;;2087309;28;20265;-49
2021/12/06 02:56:39;;;;;;;6.70;6.13;;;;;18.70;100113.00;;;;2087233;28;20282;-50
2021/12/06 02:57:45;;;;;;;7.15;5.60;;;;;18.60;100105.00;;;;2087433;28;20223;-47
2021/12/06 02:58:56;;;;;;;5.75;5.25;;;;;18.60;100115.00;;;;2087319;28;20220;-48
2021/12/06 02:59:57;;;;;;;6.50;5.90;;;;;18.60;100113.00;;;;2086677;28;20581;-49
2021/12/06 03:00:57;;;;;;;5.73;5.23;;;;;18.60;100123.00;;;;2086287;28;20290;-48
2021/12/06 03:02:00;;;;;;;5.93;5.40;;;;;18.60;100116.00;;;;2086964;28;20286;-52
2021/12/06 03:03:00;;;;;;;5.53;5.03;;;;;18.60;100119.00;;;;2085537;28;20866;-48
2021/12/06 03:04:01;;;;;;;5.80;5.20;;;;;18.60;100120.00;;;;2086745;28;20208;-49
2021/12/06 03:05:02;;;;;;;5.60;5.10;;;;;18.50;100122.00;;;;2085997;28;20213;-48
2021/12/06 03:06:03;;;;;;;5.33;4.83;;;;;18.60;100121.00;;;;2087169;28;20800;-47
2021/12/06 03:07:04;;;;;;;5.50;4.90;;;;;18.60;100128.00;;;;2087383;28;20444;-50
2021/12/06 03:08:05;;;;;;;5.80;5.20;;;;;18.60;100128.00;;;;2087382;28;20289;-48
2021/12/06 03:09:16;;;;;;;5.70;5.20;;;;;18.60;100123.00;;;;2086540;28;20285;-49
2021/12/06 03:10:18;;;;;;;5.95;5.45;;;;;18.60;100123.00;;;;2086895;28;20574;-49
2021/12/06 03:11:27;;;;;;;5.40;4.90;;;;;18.50;100128.00;;;;2087096;28;20205;-48
2021/12/06 03:12:28;;;;;;;5.47;4.95;;;;;18.50;100135.00;;;;2086627;28;20217;-49
2021/12/06 03:13:28;;;;;;;5.13;4.63;;;;;18.50;100137.00;;;;2086565;28;20276;-48
2021/12/06 03:14:37;;;;;;;5.20;4.63;;;;;18.50;100137.00;;;;2085345;28;20217;-48
2021/12/06 03:15:38;;;;;;;5.90;5.40;;;;;18.50;100131.00;;;;2078799;28;20217;-48
2021/12/06 03:16:38;;;;;;;5.73;5.20;;;;;18.50;100140.00;;;;2079166;28;20225;-49
2021/12/06 03:17:38;;;;;;;5.43;4.93;;;;;18.50;100133.00;;;;2079238;28;20210;-49
2021/12/06 03:18:42;;;;;;;6.23;5.63;;;;;18.50;100130.00;;;;2079179;28;20214;-48
2021/12/06 03:19:42;;;;;;;6.65;5.45;;;;;18.50;100131.00;;;;2079108;28;20210;-49
2021/12/06 03:20:43;;;;;;;5.83;5.23;;;;;18.50;100127.00;;;;2078544;28;20233;-48
2021/12/06 03:21:43;;;;;;;6.17;5.57;;;;;18.50;100132.00;;;;2079157;28;20217;-48
2021/12/06 03:22:44;;;;;;;5.63;5.13;;;;;18.50;100131.00;;;;2079111;28;20225;-47
2021/12/06 03:23:44;;;;;;;5.30;4.80;;;;;18.50;100127.00;;;;2078809;28;20227;-48
2021/12/06 03:24:44;;;;;;;5.57;5.07;;;;;18.50;100135.00;;;;2078521;28;20213;-49
2021/12/06 03:25:45;;;;;;;6.73;5.40;;;;;18.50;100126.00;;;;2078206;28;20271;-48
2021/12/06 03:26:45;;;;;;;6.23;5.63;;;;;18.50;100125.00;;;;2079084;28;20717;-48
2021/12/06 03:27:46;;;;;;;6.80;5.30;;;;;18.50;100131.00;;;;2079144;28;20221;-47
2021/12/06 03:28:46;;;;;;;5.50;5.00;;;;;18.50;100127.00;;;;2079048;28;20236;-48
2021/12/06 03:29:47;;;;;;;6.00;5.40;;;;;18.50;100125.00;;;;2079136;28;20677;-48
2021/12/06 03:30:47;;;;;;;5.53;5.00;;;;;18.50;100125.00;;;;2078360;28;20217;-48
2021/12/06 03:31:47;;;;;;;5.80;5.20;;;;;18.50;100130.00;;;;2079051;28;20310;-48
2021/12/06 03:32:48;;;;;;;5.17;4.67;;;;;18.50;100131.00;;;;2079134;28;20213;-47
2021/12/06 03:33:49;;;;;;;6.20;5.33;;;;;18.40;100133.00;;;;2078997;28;20228;-47
2021/12/06 03:34:49;;;;;;;5.97;5.38;;;;;18.50;100129.00;;;;2078956;28;20221;-49
2021/12/06 03:35:50;;;;;;;5.90;5.27;;;;;18.50;100131.00;;;;2077224;28;20209;-48
2021/12/06 03:36:50;;;;;;;6.50;5.43;;;;;18.50;100137.00;;;;2078948;28;20217;-47
2021/12/06 03:37:50;;;;;;;5.20;4.70;;;;;18.50;100138.00;;;;2079156;28;20344;-47
2021/12/06 03:38:51;;;;;;;5.90;5.37;;;;;18.40;100133.00;;;;2078981;28;20206;-49
2021/12/06 03:39:51;;;;;;;5.13;4.63;;;;;18.50;100143.00;;;;2079032;28;20236;-48
2021/12/06 03:40:52;;;;;;;5.40;4.90;;;;;18.50;100141.00;;;;2077555;28;20206;-48
2021/12/06 03:41:54;;;;;;;5.73;5.20;;;;;18.40;100137.00;;;;2078340;28;20232;-48
2021/12/06 03:42:54;;;;;;;6.60;5.30;;;;;18.50;100147.00;;;;2077360;28;20210;-49
2021/12/06 03:43:55;;;;;;;5.33;4.83;;;;;18.50;100143.00;;;;2079026;28;20210;-46
2021/12/06 03:44:55;;;;;;;6.00;5.40;;;;;18.40;100147.00;;;;2079002;28;20217;-48
2021/12/06 03:45:56;;;;;;;5.83;5.23;;;;;18.40;100141.00;;;;2079052;28;20245;-48
2021/12/06 03:46:59;;;;;;;6.07;5.30;;;;;18.40;100152.00;;;;2079063;28;20225;-48
2021/12/06 03:47:59;;;;;;;6.28;5.60;;;;;18.50;100148.00;;;;2079066;28;20256;-47
2021/12/06 03:48:59;;;;;;;5.47;4.97;;;;;18.40;100141.00;;;;2078924;28;20217;-48
2021/12/06 03:50:00;;;;;;;8.67;5.63;;;;;18.40;100136.00;;;;2078932;28;20218;-49
2021/12/06 03:51:01;;;;;;;5.57;5.07;;;;;18.40;100134.00;;;;2078337;28;20716;-48
2021/12/06 03:52:01;;;;;;;5.07;4.67;;;;;18.40;100142.00;;;;2078905;28;20831;-47
2021/12/06 03:53:02;;;;;;;5.20;4.70;;;;;18.40;100140.00;;;;2078663;28;20212;-48
2021/12/06 03:54:02;;;;;;;6.00;5.40;;;;;18.40;100141.00;;;;2078973;28;20217;-48
2021/12/06 03:55:04;;;;;;;4.70;4.30;;;;;18.40;100136.00;;;;2078778;28;20793;-49
2021/12/06 03:56:04;;;;;;;5.35;4.85;;;;;18.40;100140.00;;;;2078750;28;20221;-49
2021/12/06 03:57:05;;;;;;;5.37;4.87;;;;;18.40;100137.00;;;;2078893;28;20255;-49
2021/12/06 03:58:05;;;;;;;6.13;5.53;;;;;18.40;100139.00;;;;2078609;28;20216;-47
2021/12/06 03:59:06;;;;;;;5.30;4.80;;;;;18.40;100144.00;;;;2078825;28;20457;-48
2021/12/06 04:00:07;;;;;;;5.80;5.20;;;;;18.40;100141.00;;;;2078859;28;20243;-48
2021/12/06 04:01:07;;;;;;;5.97;5.37;;;;;18.40;100146.00;;;;2078291;28;20209;-49
2021/12/06 04:02:08;;;;;;;5.40;4.90;;;;;18.20;100145.00;;;;2078918;28;20452;-49
2021/12/06 04:03:09;;;;;;;5.50;5.00;;;;;18.40;100151.00;;;;2078971;28;20604;-48
2021/12/06 04:04:10;;;;;;;5.95;5.35;;;;;18.40;100147.00;;;;2082357;28;20236;-49
2021/12/06 04:05:10;;;;;;;5.90;5.30;;;;;18.40;100148.00;;;;2086187;28;20670;-47
2021/12/06 04:06:11;;;;;;;5.80;5.30;;;;;18.40;100147.00;;;;2080398;28;20463;-48
2021/12/06 04:07:12;;;;;;;5.38;4.95;;;;;18.40;100154.00;;;;2078644;28;20217;-48
2021/12/06 04:08:12;;;;;;;6.13;5.63;;;;;18.30;100156.00;;;;2078941;28;20202;-48
2021/12/06 04:09:12;;;;;;;5.80;5.27;;;;;18.30;100148.00;;;;2078636;28;20205;-47
2021/12/06 04:10:13;;;;;;;5.23;4.83;;;;;18.30;100152.00;;;;2078685;28;20210;-48
2021/12/06 04:11:13;;;;;;;5.20;4.80;;;;;18.30;100152.00;;;;2078385;28;20212;-49
2021/12/06 04:12:15;;;;;;;6.03;5.20;;;;;18.30;100159.00;;;;2078821;28;20213;-48
2021/12/06 04:13:15;;;;;;;5.68;5.18;;;;;18.30;100158.00;;;;2078876;28;20209;-47
2021/12/06 04:14:15;;;;;;;5.27;4.80;;;;;18.30;100164.00;;;;2078663;28;20229;-48
2021/12/06 04:15:16;;;;;;;5.87;5.27;;;;;18.30;100161.00;;;;2078629;28;20465;-48
2021/12/06 04:16:16;;;;;;;5.90;5.30;;;;;18.40;100162.00;;;;2078721;28;20367;-48
2021/12/06 04:17:16;;;;;;;6.33;5.63;;;;;18.30;100163.00;;;;2078358;28;20646;-47
2021/12/06 04:18:17;;;;;;;6.00;5.40;;;;;18.30;100162.00;;;;2078659;28;20225;-47
2021/12/06 04:19:17;;;;;;;5.37;4.70;;;;;18.30;100161.00;;;;2078672;28;20681;-48
2021/12/06 04:20:18;;;;;;;5.30;4.70;;;;;18.30;100158.00;;;;2077605;28;20206;-48
2021/12/06 04:21:18;;;;;;;5.07;4.67;;;;;18.30;100160.00;;;;2079677;28;20201;-49
2021/12/06 04:22:19;;;;;;;5.23;4.70;;;;;18.30;100158.00;;;;2080359;28;20288;-48
2021/12/06 04:23:21;;;;;;;5.25;4.75;;;;;18.30;100155.00;;;;2080502;28;20209;-47
2021/12/06 04:24:22;;;;;;;5.25;4.75;;;;;18.30;100166.00;;;;2080493;28;20232;-48
2021/12/06 04:25:22;;;;;;;6.93;5.23;;;;;18.30;100164.00;;;;2080264;28;20201;-47
2021/12/06 04:26:22;;;;;;;5.40;4.90;;;;;18.30;100164.00;;;;2079306;28;20272;-49
2021/12/06 04:27:23;;;;;;;6.60;5.90;;;;;18.30;100162.00;;;;2079284;28;20212;-49
2021/12/06 04:28:23;;;;;;;5.17;4.77;;;;;18.30;100174.00;;;;2080028;28;20208;-48
2021/12/06 04:29:24;;;;;;;5.60;5.10;;;;;18.30;100174.00;;;;2079713;28;20206;-48
2021/12/06 04:30:25;;;;;;;5.57;5.07;;;;;18.30;100172.00;;;;2079441;28;20205;-48
2021/12/06 04:31:31;;;;;;;5.70;5.10;;;;;18.30;100176.00;;;;2079990;28;20225;-47
2021/12/06 04:32:31;;;;;;;5.43;4.95;;;;;18.30;100175.00;;;;2080356;28;20229;-48
2021/12/06 04:33:31;;;;;;;5.70;5.10;;;;;18.20;100167.00;;;;2080445;28;20221;-47
2021/12/06 04:34:32;;;;;;;4.67;4.30;;;;;18.20;100180.00;;;;2080405;28;20213;-48
2021/12/06 04:35:33;;;;;;;5.30;4.80;;;;;18.20;100177.00;;;;2080141;28;20221;-49
2021/12/06 04:36:33;;;;;;;5.10;4.60;;;;;18.20;100172.00;;;;2080295;28;20217;-48
2021/12/06 04:37:33;;;;;;;5.30;4.90;;;;;18.20;100175.00;;;;2080536;28;20973;-48
2021/12/06 04:38:34;;;;;;;5.23;4.73;;;;;18.20;100167.00;;;;2080536;28;20665;-47
2021/12/06 04:39:34;;;;;;;5.53;5.10;;;;;18.20;100183.00;;;;2080511;28;20814;-48
2021/12/06 04:40:35;;;;;;;7.87;5.10;;;;;18.20;100181.00;;;;2078968;28;20826;-49
2021/12/06 04:41:35;;;;;;;5.53;5.13;;;;;18.30;100188.00;;;;2079613;28;20709;-46
2021/12/06 04:42:36;;;;;;;5.37;4.97;;;;;18.20;100191.00;;;;2079749;28;20470;-48
2021/12/06 04:43:36;;;;;;;4.57;4.17;;;;;18.20;100194.00;;;;2079768;28;20689;-48
2021/12/06 04:44:36;;;;;;;5.10;4.60;;;;;18.20;100191.00;;;;2080433;28;20712;-48
2021/12/06 04:45:37;;;;;;;5.20;4.70;;;;;18.20;100187.00;;;;2080428;28;20685;-48
2021/12/06 04:46:37;;;;;;;4.90;4.50;;;;;18.20;100191.00;;;;2080493;28;20300;-48
2021/12/06 04:47:38;;;;;;;5.30;4.67;;;;;18.20;100193.00;;;;2080084;28;20591;-49
2021/12/06 04:48:39;;;;;;;6.23;5.73;;;;;18.20;100197.00;;;;2080365;28;20213;-47
2021/12/06 04:49:39;;;;;;;5.00;4.50;;;;;18.20;100205.00;;;;2080311;28;20217;-48
2021/12/06 04:50:40;;;;;;;5.40;4.83;;;;;18.20;100202.00;;;;2079515;28;20210;-48
2021/12/06 04:51:42;;;;;;;5.30;4.80;;;;;18.20;100201.00;;;;2080416;28;20217;-47
2021/12/06 04:52:42;;;;;;;4.75;4.45;;;;;18.20;100196.00;;;;2080388;28;20460;-47
2021/12/06 04:53:43;;;;;;;5.10;4.70;;;;;18.20;100200.00;;;;2079816;28;20586;-47
2021/12/06 04:54:46;;;;;;;4.67;4.27;;;;;18.20;100204.00;;;;2079452;28;20539;-51
2021/12/06 04:55:56;;;;;;;4.85;4.55;;;;;18.00;100203.00;;;;2079585;28;20252;-47
2021/12/06 04:57:00;;;;;;;5.30;4.90;;;;;18.20;100207.00;;;;2079780;28;20214;-47
2021/12/06 04:58:01;;;;;;;4.70;4.30;;;;;18.20;100210.00;;;;2084880;28;20232;-48
2021/12/06 04:59:26;;;;;;;5.10;4.70;;;;;18.20;100213.00;;;;2088414;28;20763;-46
2021/12/06 05:00:32;;;;;;;4.80;4.40;;;;;18.20;100212.00;;;;2087666;28;20221;-48
2021/12/06 05:01:33;;;;;;;5.00;4.60;;;;;18.20;100209.00;;;;2088449;28;20223;-48
2021/12/06 05:02:35;;;;;;;4.47;4.10;;;;;18.20;100214.00;;;;2088500;28;20213;-47
2021/12/06 05:03:35;;;;;;;4.60;4.30;;;;;18.20;100219.00;;;;2088416;28;20224;-46
2021/12/06 05:04:36;;;;;;;5.07;4.70;;;;;18.10;100215.00;;;;2088366;28;20635;-48
2021/12/06 05:05:46;;;;;;;4.60;4.20;;;;;18.20;100217.00;;;;2088231;28;20216;-49
2021/12/06 05:06:48;;;;;;;4.90;4.50;;;;;18.20;100212.00;;;;2088272;28;20240;-48
2021/12/06 05:07:51;;;;;;;4.47;4.18;;;;;18.10;100216.00;;;;2088331;28;20213;-49
2021/12/06 05:08:54;;;;;;;4.50;4.18;;;;;18.20;100223.00;;;;2086791;28;20205;-47
2021/12/06 05:09:54;;;;;;;5.13;4.65;;;;;18.20;100212.00;;;;2088198;28;20695;-48
2021/12/06 05:10:56;;;;;;;5.10;4.70;;;;;18.20;100222.00;;;;2087642;28;20213;-49
2021/12/06 05:11:56;;;;;;;4.18;3.88;;;;;18.10;100223.00;;;;2096104;23;21395;-51
2021/12/06 05:12:57;;;;;;;4.90;4.50;;;;;18.10;100227.00;;;;2082048;28;20296;-51
2021/12/06 05:13:57;;;;;;;4.50;4.10;;;;;18.20;100232.00;;;;2081947;28;20210;-50
2021/12/06 05:14:58;;;;;;;4.90;4.50;;;;;18.10;100230.00;;;;2081281;28;20213;-50
2021/12/06 05:15:58;;;;;;;4.67;4.30;;;;;18.10;100230.00;;;;2079900;28;20214;-50
2021/12/06 05:16:58;;;;;;;4.63;4.23;;;;;18.10;100234.00;;;;2079984;28;20209;-50
2021/12/06 05:17:59;;;;;;;4.10;3.80;;;;;18.10;100236.00;;;;2079721;28;20214;-50